createdAt,value
2019-02-05T00:00:46.120Z,5.87
2019-02-05T00:03:18.134Z,5.93
2019-02-05T00:05:47.675Z,5.97
2019-02-05T00:08:18.939Z,5.33
2019-02-05T00:10:49.668Z,6.27
2019-02-05T00:13:21.218Z,5.67
2019-02-05T00:15:52.467Z,5.57
2019-02-05T00:18:23.102Z,6.47
2019-02-05T00:20:54.924Z,5.80
2019-02-05T00:23:25.994Z,6.70
2019-02-05T00:26:05.822Z,6.80
2019-02-05T00:28:29.955Z,6.77
2019-02-05T00:31:01.569Z,7.07
2019-02-05T00:33:32.726Z,6.90
2019-02-05T00:36:04.772Z,7.33
2019-02-05T00:38:35.995Z,8.33
2019-02-05T00:41:07.255Z,7.77
2019-02-05T00:43:38.505Z,7.67
2019-02-05T00:46:10.747Z,7.27
2019-02-05T00:48:41.605Z,6.73
2019-02-05T00:51:12.795Z,8.10
2019-02-05T00:53:42.967Z,8.30
2019-02-05T00:56:17.767Z,7.10
2019-02-05T00:58:46.618Z,8.37
2019-02-05T01:01:17.169Z,7.53
2019-02-05T01:03:47.888Z,7.50
2019-02-05T01:06:18.783Z,8.07
2019-02-05T01:08:49.535Z,8.13
2019-02-05T01:11:21.565Z,8.33
2019-02-05T01:13:52.936Z,8.77
2019-02-05T01:16:24.631Z,9.10
2019-02-05T01:18:55.320Z,8.50
2019-02-05T01:21:26.989Z,9.00
2019-02-05T01:23:57.601Z,8.60
2019-02-05T01:26:30.052Z,9.07
2019-02-05T01:29:00.416Z,10.67
2019-02-05T01:31:31.792Z,9.50
2019-02-05T01:34:02.591Z,10.00
2019-02-05T01:36:33.545Z,10.77
2019-02-05T01:39:06.120Z,10.63
2019-02-05T01:41:38.278Z,12.00
2019-02-05T01:44:10.236Z,11.53
2019-02-05T01:46:42.081Z,11.20
2019-02-05T01:49:13.476Z,10.93
2019-02-05T01:51:44.468Z,12.30
2019-02-05T01:54:16.343Z,11.83
2019-02-05T01:56:48.491Z,11.10
2019-02-05T01:59:18.792Z,11.50
2019-02-05T02:01:50.264Z,11.33
2019-02-05T02:04:20.931Z,11.63
2019-02-05T02:06:52.765Z,12.33
2019-02-05T02:09:23.915Z,12.00
2019-02-05T02:11:55.565Z,12.20
2019-02-05T02:14:27.416Z,12.07
2019-02-05T02:16:57.602Z,13.13
2019-02-05T02:19:28.672Z,11.80
2019-02-05T02:22:00.351Z,11.80
2019-02-05T02:24:31.585Z,12.27
2019-02-05T02:27:03.242Z,11.80
2019-02-05T02:29:34.071Z,12.07
2019-02-05T02:32:05.801Z,11.13
2019-02-05T02:34:35.846Z,12.60
2019-02-05T02:37:07.140Z,12.40
2019-02-05T02:39:37.626Z,13.57
2019-02-05T02:42:09.409Z,13.53
2019-02-05T02:44:40.214Z,12.90
2019-02-05T02:47:11.446Z,12.90
2019-02-05T02:49:42.815Z,12.87
2019-02-05T02:52:14.269Z,13.73
2019-02-05T02:54:45.624Z,12.60
2019-02-05T02:57:15.936Z,12.87
2019-02-05T02:59:45.805Z,13.23
2019-02-05T03:02:16.213Z,13.53
2019-02-05T03:04:47.148Z,13.57
2019-02-05T03:07:17.804Z,13.63
2019-02-05T03:09:47.886Z,14.97
2019-02-05T03:12:19.402Z,13.67
2019-02-05T03:14:49.869Z,13.47
2019-02-05T03:17:21.177Z,15.77
2019-02-05T03:19:52.660Z,14.97
2019-02-05T03:22:23.977Z,14.87
2019-02-05T03:24:55.008Z,15.87
2019-02-05T03:27:26.565Z,15.10
2019-02-05T03:29:58.354Z,15.43
2019-02-05T03:32:28.659Z,15.03
2019-02-05T03:34:59.978Z,15.40
2019-02-05T03:37:31.338Z,15.57
2019-02-05T03:40:02.356Z,14.73
2019-02-05T03:42:34.189Z,16.50
2019-02-05T03:45:06.345Z,16.30
2019-02-05T03:47:36.908Z,16.27
2019-02-05T03:50:08.192Z,18.03
2019-02-05T03:52:42.371Z,17.47
2019-02-05T03:55:16.514Z,17.60
2019-02-05T03:57:55.796Z,18.00
2019-02-05T04:00:37.184Z,18.63
2019-02-05T04:03:27.944Z,18.30
2019-02-05T04:06:14.875Z,19.17
2019-02-05T04:09:00.663Z,20.10
2019-02-05T04:11:37.126Z,19.87
2019-02-05T04:14:24.334Z,20.63
2019-02-05T04:17:01.530Z,20.77
2019-02-05T04:19:54.185Z,20.57
2019-02-05T04:23:01.769Z,20.43
2019-02-05T04:25:55.450Z,21.83
2019-02-05T04:28:50.587Z,23.37
2019-02-05T04:31:33.509Z,22.20
2019-02-05T04:34:37.330Z,23.30
2019-02-05T04:37:16.899Z,22.90
2019-02-05T04:39:53.319Z,22.30
2019-02-05T04:42:29.811Z,21.93
2019-02-05T04:45:13.095Z,22.13
2019-02-05T04:47:56.096Z,22.57
2019-02-05T04:50:38.825Z,24.40
2019-02-05T04:53:24.195Z,24.13
2019-02-05T04:56:00.298Z,23.87
2019-02-05T04:58:51.912Z,24.13
2019-02-05T05:01:31.737Z,24.97
2019-02-05T05:04:08.267Z,25.13
2019-02-05T05:07:03.567Z,25.20
2019-02-05T05:09:57.647Z,25.60
2019-02-05T05:12:29.629Z,25.70
2019-02-05T05:15:01.319Z,25.47
2019-02-05T05:17:33.297Z,26.00
2019-02-05T05:20:04.368Z,26.13
2019-02-05T05:22:36.295Z,27.57
2019-02-05T05:25:10.042Z,27.13
2019-02-05T05:27:41.070Z,28.17
2019-02-05T05:30:17.340Z,27.93
2019-02-05T05:32:48.320Z,27.10
2019-02-05T05:35:20.082Z,27.93
2019-02-05T05:37:52.348Z,28.03
2019-02-05T05:40:23.959Z,27.40
2019-02-05T05:42:54.972Z,30.63
2019-02-05T05:45:26.787Z,28.83
2019-02-05T05:47:58.416Z,29.20
2019-02-05T05:50:29.838Z,27.87
2019-02-05T05:53:00.663Z,29.90
2019-02-05T05:55:32.259Z,29.47
2019-02-05T05:58:03.724Z,30.30
2019-02-05T06:00:35.543Z,31.40
2019-02-05T06:03:06.907Z,30.00
2019-02-05T06:05:37.902Z,30.23
2019-02-05T06:08:09.574Z,30.97
2019-02-05T06:10:39.964Z,30.77
2019-02-05T06:13:11.140Z,29.57
2019-02-05T06:15:42.523Z,31.23
2019-02-05T06:18:13.894Z,31.60
2019-02-05T06:20:44.329Z,29.63
2019-02-05T06:23:14.843Z,30.80
2019-02-05T06:25:45.622Z,31.03
2019-02-05T06:28:16.780Z,33.10
2019-02-05T06:30:48.101Z,32.00
2019-02-05T06:33:18.748Z,33.50
2019-02-05T06:35:49.910Z,33.23
2019-02-05T06:38:21.588Z,31.60
2019-02-05T06:40:52.565Z,33.17
2019-02-05T06:43:23.993Z,33.83
2019-02-05T06:45:55.169Z,32.57
2019-02-05T06:48:26.659Z,31.23
2019-02-05T06:50:57.533Z,32.00
2019-02-05T06:53:27.567Z,32.53
2019-02-05T06:55:58.448Z,32.93
2019-02-05T06:58:29.285Z,33.63
2019-02-05T07:01:01.208Z,33.37
2019-02-05T07:03:32.452Z,34.10
2019-02-05T07:06:03.597Z,33.90
2019-02-05T07:08:34.810Z,33.57
2019-02-05T07:11:06.286Z,34.90
2019-02-05T07:13:37.052Z,34.57
2019-02-05T07:16:07.497Z,32.70
2019-02-05T07:18:37.568Z,35.17
2019-02-05T07:21:07.877Z,34.57
2019-02-05T07:23:39.591Z,33.27
2019-02-05T07:26:10.331Z,33.57
2019-02-05T07:28:42.532Z,33.85
2019-02-05T07:31:13.851Z,34.63
2019-02-05T07:33:43.713Z,34.87
2019-02-05T07:36:20.770Z,33.53
2019-02-05T07:39:03.353Z,32.97
2019-02-05T07:41:44.776Z,34.23
2019-02-05T07:44:34.168Z,33.50
2019-02-05T07:47:03.656Z,32.93
2019-02-05T07:49:35.212Z,31.97
2019-02-05T07:52:06.355Z,33.03
2019-02-05T07:54:37.053Z,33.47
2019-02-05T07:57:07.332Z,31.33
2019-02-05T07:59:37.893Z,30.93
2019-02-05T08:02:08.476Z,30.23
2019-02-05T08:04:38.353Z,30.60
2019-02-05T08:07:10.435Z,27.47
2019-02-05T08:09:40.857Z,28.60
2019-02-05T08:12:11.783Z,28.80
2019-02-05T08:14:42.742Z,29.60
2019-02-05T08:17:14.553Z,29.10
2019-02-05T08:19:58.456Z,28.93
2019-02-05T08:22:32.328Z,29.33
2019-02-05T08:25:03.729Z,28.53
2019-02-05T08:27:43.592Z,28.43
2019-02-05T08:30:19.237Z,26.23
2019-02-05T08:32:56.257Z,27.73
2019-02-05T08:35:28.161Z,26.87
2019-02-05T08:38:03.268Z,27.27
2019-02-05T08:40:34.038Z,28.77
2019-02-05T08:43:06.146Z,27.00
2019-02-05T08:45:39.346Z,25.47
2019-02-05T08:48:12.883Z,25.43
2019-02-05T08:50:43.980Z,26.07
2019-02-05T08:53:14.862Z,27.53
2019-02-05T08:55:45.932Z,25.57
2019-02-05T08:58:17.256Z,25.40
2019-02-05T09:00:49.176Z,27.60
2019-02-05T09:03:19.804Z,25.07
2019-02-05T09:05:52.406Z,25.07
2019-02-05T09:08:23.987Z,25.10
2019-02-05T09:10:55.863Z,24.50
2019-02-05T09:13:27.516Z,23.33
2019-02-05T09:15:57.629Z,24.43
2019-02-05T09:18:27.508Z,24.57
2019-02-05T09:20:59.024Z,23.50
2019-02-05T09:23:30.317Z,23.53
2019-02-05T09:26:01.629Z,23.53
2019-02-05T09:28:33.169Z,23.20
2019-02-05T09:31:04.513Z,23.37
2019-02-05T09:33:36.959Z,24.27
2019-02-05T09:36:07.869Z,23.30
2019-02-05T09:38:38.653Z,24.47
2019-02-05T09:41:09.207Z,23.30
2019-02-05T09:43:43.732Z,23.17
2019-02-05T09:46:15.283Z,22.77
2019-02-05T09:48:45.786Z,22.27
2019-02-05T09:51:15.871Z,23.43
2019-02-05T09:53:46.927Z,23.37
2019-02-05T09:56:17.172Z,25.03
2019-02-05T09:58:47.852Z,22.47
2019-02-05T10:01:19.158Z,21.93
2019-02-05T10:03:50.717Z,22.03
2019-02-05T10:06:24.937Z,22.37
2019-02-05T10:08:56.220Z,23.03
2019-02-05T10:11:27.357Z,23.77
2019-02-05T10:13:57.746Z,24.13
2019-02-05T10:16:29.331Z,23.47
2019-02-05T10:19:00.106Z,23.60
2019-02-05T10:21:31.170Z,23.57
2019-02-05T10:24:03.059Z,24.27
2019-02-05T10:26:35.012Z,23.87
2019-02-05T10:29:06.522Z,23.37
2019-02-05T10:31:37.369Z,23.57
2019-02-05T10:34:07.663Z,23.63
2019-02-05T10:36:37.804Z,23.90
2019-02-05T10:39:10.483Z,23.07
2019-02-05T10:41:42.328Z,21.83
2019-02-05T10:44:14.263Z,23.40
2019-02-05T10:46:45.749Z,23.00
2019-02-05T10:49:17.111Z,21.70
2019-02-05T10:51:47.383Z,20.90
2019-02-05T10:54:18.901Z,20.53
2019-02-05T10:56:50.364Z,18.53
2019-02-05T10:59:22.624Z,18.30
2019-02-05T11:01:54.485Z,17.87
2019-02-05T11:04:26.010Z,18.70
2019-02-05T11:06:56.665Z,17.30
2019-02-05T11:09:27.241Z,18.40
2019-02-05T11:11:57.578Z,17.47
2019-02-05T11:14:28.941Z,17.50
2019-02-05T11:17:00.855Z,17.77
2019-02-05T11:19:39.951Z,17.40
2019-02-05T11:22:27.122Z,17.70
2019-02-05T11:24:59.246Z,17.70
2019-02-05T11:27:37.308Z,17.40
2019-02-05T11:30:19.643Z,17.43
2019-02-05T11:32:41.377Z,16.90
2019-02-05T11:35:13.192Z,17.17
2019-02-05T11:37:44.063Z,17.80
2019-02-05T11:40:17.359Z,17.80
2019-02-05T11:52:41.120Z,18.87
2019-02-05T11:55:17.333Z,18.93
2019-02-05T11:57:47.271Z,19.53
2019-02-05T12:00:32.271Z,19.83
2019-02-05T12:03:04.984Z,18.70
2019-02-05T12:05:36.375Z,19.80
2019-02-05T12:08:08.027Z,19.60
2019-02-05T12:10:44.104Z,19.30
2019-02-05T12:13:16.328Z,19.63
2019-02-05T12:15:47.751Z,18.87
2019-02-05T12:18:19.372Z,20.23
2019-02-05T12:20:50.663Z,20.10
2019-02-05T12:23:22.241Z,20.43
2019-02-05T12:25:55.482Z,18.50
2019-02-05T12:28:27.869Z,19.87
2019-02-05T12:30:59.239Z,18.70
2019-02-05T12:33:31.722Z,19.57
2019-02-05T12:36:03.468Z,21.03
2019-02-05T12:38:35.262Z,19.67
2019-02-05T12:41:07.601Z,21.30
2019-02-05T12:43:40.738Z,17.83
2019-02-05T12:46:12.106Z,19.10
2019-02-05T12:48:43.791Z,19.57
2019-02-05T12:51:15.544Z,20.10
2019-02-05T12:53:47.802Z,20.53
2019-02-05T12:56:19.610Z,20.63
2019-02-05T12:58:52.900Z,19.00
2019-02-05T13:01:25.216Z,19.90
2019-02-05T13:03:57.364Z,19.70
2019-02-05T13:06:29.135Z,19.30
2019-02-05T13:09:01.179Z,19.77
2019-02-05T13:11:32.712Z,19.27
2019-02-05T13:14:04.065Z,19.67
2019-02-05T13:16:35.885Z,19.63
2019-02-05T13:19:08.045Z,19.63
2019-02-05T13:21:39.277Z,19.93
2019-02-05T13:24:11.448Z,18.73
2019-02-05T13:26:43.841Z,20.30
2019-02-05T13:29:16.401Z,19.43
2019-02-05T13:31:48.437Z,20.00
2019-02-05T13:34:20.065Z,18.87
2019-02-05T13:36:53.036Z,19.57
2019-02-05T13:39:25.650Z,18.50
2019-02-05T13:41:57.245Z,19.70
2019-02-05T13:44:29.074Z,19.40
2019-02-05T13:47:00.058Z,19.80
2019-02-05T13:49:31.926Z,19.53
2019-02-05T13:52:03.213Z,19.60
2019-02-05T13:54:35.008Z,19.67
2019-02-05T13:57:06.239Z,20.93
2019-02-05T13:59:38.906Z,19.07
2019-02-05T14:02:11.008Z,18.57
2019-02-05T14:04:43.120Z,20.07
2019-02-05T14:07:14.439Z,19.13
2019-02-05T14:09:45.526Z,19.70
2019-02-05T14:12:16.360Z,20.13
2019-02-05T14:14:47.865Z,20.27
2019-02-05T14:17:19.765Z,20.33
2019-02-05T14:19:52.056Z,19.93
2019-02-05T14:22:24.531Z,20.03
2019-02-05T14:24:56.975Z,18.80
2019-02-05T14:30:32.592Z,19.57
2019-02-05T14:33:05.589Z,18.07
2019-02-05T14:35:36.541Z,19.43
2019-02-05T14:38:08.118Z,19.47
2019-02-05T14:40:39.327Z,19.07
2019-02-05T14:43:10.626Z,19.73
2019-02-05T14:45:42.500Z,18.33
2019-02-05T14:48:13.823Z,19.93
2019-02-05T14:50:47.342Z,19.17
2019-02-05T14:53:19.580Z,19.47
2019-02-05T14:55:51.964Z,19.33
2019-02-05T14:58:23.216Z,18.67
2019-02-05T15:00:54.366Z,19.63
2019-02-05T15:03:26.461Z,18.87
2019-02-05T15:05:56.144Z,19.53
2019-02-05T15:08:25.870Z,18.87
2019-02-05T15:10:55.855Z,19.50
2019-02-05T15:13:25.510Z,19.10
2019-02-05T15:15:55.117Z,18.53
2019-02-05T15:18:24.790Z,18.87
2019-02-05T15:20:54.454Z,18.53
2019-02-05T15:23:24.091Z,17.83
2019-02-05T15:25:54.283Z,19.03
2019-02-05T15:28:24.006Z,18.63
2019-02-05T15:30:53.656Z,18.50
2019-02-05T15:33:42.822Z,18.87
2019-02-05T15:36:20.582Z,18.50
2019-02-05T15:38:50.478Z,19.57
2019-02-05T15:41:20.146Z,17.20
2019-02-05T15:43:49.795Z,18.80
2019-02-05T15:46:19.497Z,18.73
2019-02-05T15:48:49.647Z,18.73
2019-02-05T15:51:19.354Z,18.20
2019-02-05T15:53:49.012Z,18.50
2019-02-05T15:56:18.825Z,17.83
2019-02-05T15:58:48.456Z,18.87
2019-02-05T16:01:18.104Z,18.77
2019-02-05T16:03:48.197Z,18.53
2019-02-05T16:06:17.888Z,18.13
2019-02-05T16:08:47.617Z,19.57
2019-02-05T16:11:17.269Z,18.33
2019-02-05T16:13:47.017Z,18.00
2019-02-05T16:16:16.754Z,18.37
2019-02-05T16:18:46.890Z,17.73
2019-02-05T16:21:16.600Z,17.03
2019-02-05T16:23:46.197Z,18.63
2019-02-05T16:26:15.915Z,19.10
2019-02-05T16:28:45.589Z,18.67
2019-02-05T16:31:15.287Z,18.33
2019-02-05T16:33:45.186Z,18.67
2019-02-05T16:36:14.815Z,18.17
2019-02-05T16:38:44.432Z,17.93
2019-02-05T16:41:13.934Z,17.20
2019-02-05T16:43:43.617Z,17.67
2019-02-05T16:46:13.222Z,16.70
2019-02-05T16:48:42.884Z,18.40
2019-02-05T16:51:12.489Z,17.40
2019-02-05T16:53:42.014Z,16.60
2019-02-05T16:56:11.718Z,17.70
2019-02-05T16:58:41.338Z,17.03
2019-02-05T17:01:11.094Z,17.37
2019-02-05T17:03:40.802Z,18.00
2019-02-05T17:06:10.491Z,18.83
2019-02-05T17:08:40.136Z,17.97
2019-02-05T17:11:09.876Z,17.80
2019-02-05T17:13:39.532Z,17.33
2019-02-05T17:16:09.271Z,17.33
2019-02-05T17:18:38.920Z,17.93
2019-02-05T17:21:08.562Z,17.70
2019-02-05T17:23:38.257Z,18.40
2019-02-05T17:26:07.951Z,17.93
2019-02-05T17:28:37.541Z,18.40
2019-02-05T17:31:07.265Z,18.10
2019-02-05T17:33:36.902Z,18.30
2019-02-05T17:36:06.671Z,18.10
2019-02-05T17:38:36.296Z,17.30
2019-02-05T17:41:06.019Z,17.90
2019-02-05T17:43:35.636Z,17.67
2019-02-05T17:46:06.103Z,16.70
2019-02-05T17:48:35.782Z,17.13
2019-02-05T17:51:05.456Z,18.47
2019-02-05T17:53:35.050Z,16.93
2019-02-05T17:56:05.055Z,16.83
2019-02-05T17:58:34.737Z,17.97
2019-02-05T18:01:07.178Z,17.47
2019-02-05T18:03:36.886Z,17.00
2019-02-05T18:06:06.826Z,18.33
2019-02-05T18:08:36.550Z,17.50
2019-02-05T18:11:06.471Z,17.80
2019-02-05T18:13:36.198Z,18.10
2019-02-05T18:16:08.148Z,18.30
2019-02-05T18:18:37.819Z,17.93
2019-02-05T18:21:07.474Z,18.00
2019-02-05T18:23:37.186Z,17.27
2019-02-05T18:26:07.037Z,17.77
2019-02-05T18:28:37.060Z,17.63
2019-02-05T18:31:06.776Z,16.37
2019-02-05T18:33:36.289Z,17.93
2019-02-05T18:36:06.466Z,17.33
2019-02-05T18:38:36.175Z,17.00
2019-02-05T18:41:05.916Z,16.47
2019-02-05T18:43:35.874Z,16.13
2019-02-05T18:46:05.662Z,17.07
2019-02-05T18:48:35.326Z,17.37
2019-02-05T18:51:04.977Z,17.13
2019-02-05T18:53:34.671Z,16.33
2019-02-05T18:56:05.000Z,16.57
2019-02-05T18:58:34.613Z,17.47
2019-02-05T19:01:05.307Z,16.40
2019-02-05T19:03:35.091Z,15.20
2019-02-05T19:06:04.744Z,16.63
2019-02-05T19:08:34.389Z,16.43
2019-02-05T19:11:04.094Z,17.67
2019-02-05T19:13:33.779Z,16.50
2019-02-05T19:16:03.354Z,17.20
2019-02-05T19:18:33.076Z,17.90
2019-02-05T19:21:02.674Z,17.77
2019-02-05T19:23:32.197Z,15.13
2019-02-05T19:26:08.573Z,15.83
2019-02-05T19:28:37.690Z,17.33
2019-02-05T19:31:08.964Z,17.30
2019-02-05T19:33:38.649Z,16.43
2019-02-05T19:36:08.296Z,17.23
2019-02-05T19:38:37.914Z,16.23
2019-02-05T19:41:07.637Z,17.57
2019-02-05T19:43:37.306Z,16.27
2019-02-05T19:46:08.839Z,17.03
2019-02-05T19:48:40.208Z,17.47
2019-02-05T19:51:09.945Z,17.73
2019-02-05T19:53:39.582Z,17.43
2019-02-05T19:56:14.457Z,17.10
2019-02-05T19:58:43.816Z,16.70
2019-02-05T20:01:13.397Z,18.10
2019-02-05T20:03:42.958Z,17.30
2019-02-05T20:06:12.597Z,16.97
2019-02-05T20:08:42.355Z,15.90
2019-02-05T20:11:12.082Z,17.93
2019-02-05T20:13:41.661Z,16.37
2019-02-05T20:16:11.315Z,17.33
2019-02-05T20:18:41.087Z,16.53
2019-02-05T20:21:10.709Z,17.07
2019-02-05T20:23:40.377Z,16.60
2019-02-05T20:26:10.066Z,18.63
2019-02-05T20:28:40.040Z,15.90
2019-02-05T20:31:09.632Z,18.47
2019-02-05T20:33:49.445Z,18.33
2019-02-05T20:36:10.563Z,17.83
2019-02-05T20:38:40.386Z,17.87
2019-02-05T20:41:10.106Z,17.90
2019-02-05T20:43:40.118Z,18.90
2019-02-05T20:46:09.799Z,18.57
2019-02-05T20:48:39.389Z,18.97
2019-02-05T20:51:09.060Z,17.80
2019-02-05T20:53:38.609Z,19.90
2019-02-05T20:56:08.315Z,18.23
2019-02-05T20:58:37.898Z,18.50
2019-02-05T21:01:07.584Z,19.13
2019-02-05T21:03:38.113Z,19.77
2019-02-05T21:06:07.724Z,19.23
2019-02-05T21:08:37.405Z,19.90
2019-02-05T21:11:07.096Z,20.53
2019-02-05T21:13:36.946Z,21.33
2019-02-05T21:16:06.999Z,21.10
2019-02-05T21:18:36.650Z,20.47
2019-02-05T21:21:07.217Z,20.70
2019-02-05T21:23:38.162Z,20.17
2019-02-05T21:26:07.934Z,22.03
2019-02-05T21:28:37.518Z,22.40
2019-02-05T21:31:07.666Z,21.50
2019-02-05T21:33:37.385Z,23.17
2019-02-05T21:36:07.053Z,24.30
2019-02-05T21:38:37.129Z,27.00
2019-02-05T21:41:06.865Z,26.87
2019-02-05T21:43:36.366Z,25.77
2019-02-05T21:46:06.401Z,23.60
2019-02-05T21:48:36.037Z,22.50
2019-02-05T21:51:05.970Z,23.73
2019-02-05T21:53:35.601Z,24.10
2019-02-05T21:56:05.338Z,25.23
2019-02-05T21:58:34.897Z,24.83
2019-02-05T22:01:05.467Z,27.07
2019-02-05T22:03:35.590Z,28.80
2019-02-05T22:06:05.700Z,25.00
2019-02-05T22:08:35.222Z,26.10
2019-02-05T22:11:04.944Z,25.23
2019-02-05T22:13:34.573Z,28.23
2019-02-05T22:16:04.239Z,29.40
2019-02-05T22:18:34.014Z,30.07
2019-02-05T22:21:04.094Z,30.20
2019-02-05T22:23:34.373Z,30.60
2019-02-05T22:26:04.052Z,31.60
2019-02-05T22:28:33.741Z,31.33
2019-02-05T22:31:03.421Z,29.43
2019-02-05T22:33:33.013Z,31.70
2019-02-05T22:36:03.041Z,31.20
2019-02-05T22:38:32.733Z,31.57
2019-02-05T22:41:02.386Z,32.47
2019-02-05T22:43:31.936Z,30.17
2019-02-05T22:46:01.608Z,31.83
2019-02-05T22:48:31.669Z,32.67
2019-02-05T22:51:01.320Z,30.43
2019-02-05T22:53:31.218Z,32.33
2019-02-05T22:56:00.869Z,33.83
2019-02-05T22:58:30.718Z,32.37
2019-02-05T23:01:09.207Z,31.83
2019-02-05T23:03:41.971Z,33.27
2019-02-05T23:06:23.909Z,34.37
2019-02-05T23:08:55.054Z,34.80
2019-02-05T23:11:27.664Z,33.70
2019-02-05T23:13:57.576Z,34.43
2019-02-05T23:16:27.187Z,34.80
2019-02-05T23:18:56.850Z,35.77
2019-02-05T23:21:26.548Z,34.27
2019-02-05T23:23:56.641Z,35.50
2019-02-05T23:26:26.297Z,34.63
2019-02-05T23:28:56.112Z,31.90
2019-02-05T23:31:25.761Z,31.07
2019-02-05T23:33:55.363Z,32.50
2019-02-05T23:36:25.020Z,31.97
2019-02-05T23:38:55.121Z,30.10
2019-02-05T23:41:24.798Z,31.43
2019-02-05T23:43:54.388Z,32.43
2019-02-05T23:46:24.092Z,31.53
2019-02-05T23:48:53.756Z,32.43
2019-02-05T23:51:23.312Z,31.63
2019-02-05T23:53:53.436Z,30.43
2019-02-05T23:56:25.717Z,31.40
2019-02-05T23:58:54.393Z,32.20
